createdAt,value
2022-12-09T00:03:42.345Z,29.85
2022-12-09T00:08:40.493Z,32.28
2022-12-09T00:13:38.482Z,27.10
2022-12-09T00:18:37.562Z,29.83
2022-12-09T00:23:34.594Z,36.80
2022-12-09T00:28:32.380Z,34.78
2022-12-09T00:33:30.373Z,35.72
2022-12-09T00:38:28.051Z,32.00
2022-12-09T00:43:25.393Z,36.15
2022-12-09T00:48:26.293Z,34.72
2022-12-09T00:53:23.583Z,36.35
2022-12-09T00:58:20.930Z,40.85
2022-12-09T01:03:18.782Z,38.88
2022-12-09T01:08:17.524Z,36.10
2022-12-09T01:13:16.498Z,36.78
2022-12-09T01:18:16.841Z,28.63
2022-12-09T01:23:17.419Z,26.98
2022-12-09T01:28:17.611Z,30.33
2022-12-09T01:33:15.081Z,34.08
2022-12-09T01:38:12.055Z,17.77
2022-12-09T01:43:17.578Z,24.35
2022-12-09T01:48:16.628Z,20.55
2022-12-09T01:53:15.277Z,25.40
2022-12-09T01:58:14.944Z,23.25
2022-12-09T02:03:13.716Z,22.45
2022-12-09T02:08:14.523Z,20.63
2022-12-09T02:13:26.345Z,20.23
2022-12-09T02:18:29.807Z,17.25
2022-12-09T02:23:33.105Z,16.45
2022-12-09T02:29:16.119Z,19.67
2022-12-09T02:34:17.414Z,16.67
2022-12-09T02:39:24.595Z,20.52
2022-12-09T02:44:24.337Z,17.45
2022-12-09T02:49:25.611Z,18.45
2022-12-09T02:54:24.506Z,20.48
2022-12-09T02:59:23.226Z,15.02
2022-12-09T03:04:24.123Z,20.08
2022-12-09T03:09:27.511Z,21.17
2022-12-09T03:14:30.152Z,21.92
2022-12-09T03:19:33.885Z,23.63
2022-12-09T03:24:35.676Z,17.88
2022-12-09T03:29:37.487Z,20.67
2022-12-09T03:34:38.881Z,21.25
2022-12-09T03:39:38.735Z,21.90
2022-12-09T03:44:39.624Z,23.63
2022-12-09T03:49:38.985Z,22.50
2022-12-09T03:54:42.678Z,20.50
2022-12-09T03:59:43.158Z,19.58
2022-12-09T04:04:42.159Z,20.08
2022-12-09T04:09:39.655Z,18.27
2022-12-09T04:14:37.177Z,22.00
2022-12-09T04:19:34.182Z,19.60
2022-12-09T04:24:32.361Z,21.17
2022-12-09T04:29:29.648Z,18.27
2022-12-09T04:34:27.802Z,19.60
2022-12-09T04:39:25.969Z,20.05
2022-12-09T04:44:23.908Z,19.63
2022-12-09T04:49:21.202Z,20.92
2022-12-09T04:54:19.678Z,21.63
2022-12-09T04:59:16.956Z,21.42
2022-12-09T05:04:15.483Z,22.90
2022-12-09T05:09:13.687Z,18.83
2022-12-09T05:14:11.863Z,23.95
2022-12-09T05:19:10.383Z,20.00
2022-12-09T05:24:08.873Z,22.95
2022-12-09T05:29:06.494Z,15.93
2022-12-09T05:34:04.176Z,19.52
2022-12-09T05:39:06.180Z,22.15
2022-12-09T05:44:04.152Z,25.77
2022-12-09T05:49:01.361Z,21.33
2022-12-09T05:54:02.765Z,23.65
2022-12-09T05:59:01.941Z,22.83
2022-12-09T06:04:38.511Z,20.80
2022-12-09T06:09:36.280Z,19.38
2022-12-09T06:14:33.717Z,21.40
2022-12-09T06:19:31.838Z,22.40
2022-12-09T06:24:30.866Z,17.15
2022-12-09T06:29:28.234Z,21.50
2022-12-09T06:34:25.468Z,26.42
2022-12-09T06:39:23.535Z,24.08
2022-12-09T06:44:23.852Z,28.45
2022-12-09T06:49:21.522Z,20.08
2022-12-09T06:54:18.787Z,18.27
2022-12-09T06:59:16.839Z,18.55
2022-12-09T07:04:17.796Z,14.30
2022-12-09T07:09:17.700Z,16.30
2022-12-09T07:14:18.394Z,14.98
2022-12-09T07:19:24.197Z,13.95
2022-12-09T07:24:22.867Z,14.32
2022-12-09T07:29:21.602Z,13.70
2022-12-09T07:34:20.493Z,14.32
2022-12-09T07:39:21.218Z,11.57
2022-12-09T07:44:18.731Z,11.88
2022-12-09T07:49:19.444Z,16.88
2022-12-09T07:54:21.350Z,20.08
2022-12-09T07:59:19.103Z,13.48
2022-12-09T08:04:17.209Z,15.75
2022-12-09T08:09:17.733Z,14.13
2022-12-09T08:14:14.995Z,13.18
2022-12-09T08:19:14.672Z,13.25
2022-12-09T08:24:19.080Z,17.00
2022-12-09T08:29:16.835Z,17.80
2022-12-09T08:34:15.332Z,19.02
2022-12-09T08:39:14.198Z,23.90
2022-12-09T08:44:15.301Z,25.45
2022-12-09T08:49:49.954Z,24.70
2022-12-09T08:54:56.826Z,24.40
2022-12-09T08:59:54.457Z,21.02
2022-12-09T09:04:51.855Z,22.60
2022-12-09T09:09:49.617Z,23.23
2022-12-09T09:14:47.699Z,24.17
2022-12-09T09:19:47.146Z,21.70
2022-12-09T09:24:59.547Z,22.10
2022-12-09T09:29:59.440Z,16.58
2022-12-09T09:34:56.862Z,14.20
2022-12-09T09:40:21.074Z,22.05
2022-12-09T09:45:21.397Z,14.65
2022-12-09T09:50:27.637Z,12.95
2022-12-09T09:55:44.654Z,14.13
2022-12-09T10:00:49.253Z,12.80
2022-12-09T10:05:53.074Z,15.87
2022-12-09T10:11:01.701Z,12.30
2022-12-09T10:16:09.373Z,11.02
2022-12-09T10:21:17.184Z,14.52
2022-12-09T10:26:19.676Z,12.15
2022-12-09T10:31:20.402Z,19.10
2022-12-09T10:36:26.795Z,23.75
2022-12-09T10:41:59.955Z,20.58
2022-12-09T10:47:01.588Z,35.83
2022-12-09T10:52:01.624Z,19.23
2022-12-09T10:57:23.401Z,20.23
2022-12-09T11:02:22.983Z,18.45
2022-12-09T11:07:26.101Z,38.10
2022-12-09T11:12:39.907Z,33.85
2022-12-09T11:17:43.124Z,31.70
2022-12-09T11:22:42.465Z,37.00
2022-12-09T11:27:44.132Z,46.63
2022-12-09T11:32:59.782Z,54.80
2022-12-09T11:37:59.229Z,79.68
2022-12-09T11:42:58.025Z,79.65
2022-12-09T11:48:29.863Z,82.80
2022-12-09T11:53:28.307Z,81.53
2022-12-09T11:58:28.894Z,80.68
2022-12-09T12:03:35.152Z,71.45
2022-12-09T12:08:38.918Z,74.38
2022-12-09T12:13:40.082Z,62.97
2022-12-09T12:18:45.252Z,40.80
2022-12-09T12:23:57.560Z,44.73
2022-12-09T12:29:07.864Z,46.28
2022-12-09T12:34:37.307Z,36.60
2022-12-09T12:39:48.606Z,40.20
2022-12-09T12:45:10.284Z,38.70
2022-12-09T12:50:26.572Z,38.03
2022-12-09T12:55:41.207Z,54.67
2022-12-09T13:00:51.111Z,46.65
2022-12-09T13:05:52.551Z,55.05
2022-12-09T13:10:53.553Z,59.05
2022-12-09T13:15:54.715Z,52.58
2022-12-09T13:20:54.536Z,59.85
2022-12-09T13:26:23.745Z,80.30
2022-12-09T13:31:29.255Z,72.13
2022-12-09T13:36:37.130Z,89.95
2022-12-09T13:41:58.967Z,57.25
2022-12-09T13:47:27.879Z,71.40
2022-12-09T13:52:42.965Z,69.25
2022-12-09T13:57:50.153Z,65.23
2022-12-09T14:03:01.503Z,69.88
2022-12-09T14:08:04.412Z,68.40
2022-12-09T14:13:21.502Z,71.40
2022-12-09T14:18:32.951Z,59.83
2022-12-09T14:23:32.116Z,48.00
2022-12-09T14:29:00.214Z,37.83
2022-12-09T14:33:57.151Z,52.42
2022-12-09T14:39:24.157Z,99.55
2022-12-09T14:44:28.769Z,76.88
2022-12-09T14:49:29.423Z,69.05
2022-12-09T14:54:32.370Z,86.10
2022-12-09T14:59:32.013Z,92.65
2022-12-09T15:04:31.689Z,95.47
2022-12-09T15:09:30.114Z,99.32
2022-12-09T15:14:27.831Z,119.25
2022-12-09T15:20:01.285Z,113.60
2022-12-09T15:24:53.024Z,82.70
2022-12-09T15:29:51.181Z,119.78
2022-12-09T15:34:53.224Z,89.78
2022-12-09T15:39:58.862Z,81.38
2022-12-09T15:45:04.070Z,97.03
2022-12-09T15:50:10.828Z,63.65
2022-12-09T15:55:14.645Z,96.10
2022-12-09T16:00:13.234Z,80.90
2022-12-09T16:05:11.375Z,110.00
2022-12-09T16:10:14.276Z,107.68
2022-12-09T16:15:15.268Z,120.88
2022-12-09T16:20:22.268Z,112.72
2022-12-09T16:25:25.583Z,92.80
2022-12-09T16:30:29.495Z,67.88
2022-12-09T16:35:39.884Z,86.03
2022-12-09T16:41:02.365Z,71.22
2022-12-09T16:46:03.393Z,53.65
2022-12-09T16:51:12.975Z,61.28
2022-12-09T16:56:18.965Z,40.10
2022-12-09T17:06:18.185Z,39.75
2022-12-09T17:11:19.816Z,33.83
2022-12-09T17:16:55.332Z,36.97
2022-12-09T17:21:55.247Z,62.83
2022-12-09T17:27:03.158Z,39.20
2022-12-09T17:32:01.633Z,55.25
2022-12-09T17:36:59.330Z,51.90
2022-12-09T17:41:59.676Z,51.03
2022-12-09T17:47:02.300Z,55.00
2022-12-09T17:52:00.446Z,71.13
2022-12-09T17:56:59.315Z,44.50
2022-12-09T18:01:59.986Z,46.45
2022-12-09T18:06:57.536Z,21.08
2022-12-09T18:11:57.614Z,26.02
2022-12-09T18:16:57.148Z,29.50
2022-12-09T18:22:05.595Z,33.10
2022-12-09T18:27:08.832Z,46.63
2022-12-09T18:32:07.247Z,47.17
2022-12-09T18:37:13.181Z,49.45
2022-12-09T18:42:10.163Z,52.08
2022-12-09T18:47:08.199Z,61.33
2022-12-09T18:52:05.417Z,95.80
2022-12-09T18:57:03.288Z,58.00
2022-12-09T19:02:00.190Z,56.42
2022-12-09T19:06:59.367Z,54.13
2022-12-09T19:11:56.552Z,52.67
2022-12-09T19:16:54.118Z,41.42
2022-12-09T19:21:52.549Z,30.30
2022-12-09T19:26:52.955Z,33.00
2022-12-09T19:31:53.199Z,29.67
2022-12-09T19:36:52.517Z,40.80
2022-12-09T19:41:51.463Z,26.55
2022-12-09T19:46:48.715Z,38.05
2022-12-09T19:51:46.599Z,30.02
2022-12-09T19:56:44.131Z,32.85
2022-12-09T20:01:43.763Z,59.70
2022-12-09T20:06:41.960Z,41.55
2022-12-09T20:11:39.932Z,36.97
2022-12-09T20:16:41.577Z,38.17
2022-12-09T20:21:39.899Z,49.90
2022-12-09T20:26:38.187Z,73.45
2022-12-09T20:31:37.215Z,71.22
2022-12-09T20:36:36.708Z,64.57
2022-12-09T20:41:33.614Z,59.63
2022-12-09T20:46:35.035Z,73.72
2022-12-09T20:51:36.829Z,42.72
2022-12-09T20:56:34.947Z,68.40
2022-12-09T21:01:45.208Z,51.67
2022-12-09T21:06:43.151Z,58.35
2022-12-09T21:11:40.433Z,63.88
2022-12-09T21:16:42.659Z,58.28
2022-12-09T21:21:42.266Z,43.85
2022-12-09T21:26:40.658Z,68.50
2022-12-09T21:31:40.201Z,45.42
2022-12-09T21:36:40.245Z,59.65
2022-12-09T21:41:37.715Z,48.22
2022-12-09T21:46:36.772Z,95.47
2022-12-09T21:51:34.784Z,88.22
2022-12-09T21:56:35.122Z,42.53
2022-12-09T22:01:34.060Z,47.78
2022-12-09T22:06:31.690Z,45.20
2022-12-09T22:11:31.100Z,37.40
2022-12-09T22:16:30.730Z,36.58
2022-12-09T22:21:30.311Z,41.08
2022-12-09T22:26:28.962Z,53.75
2022-12-09T22:31:28.297Z,44.03
2022-12-09T22:36:28.098Z,42.67
2022-12-09T22:41:27.492Z,24.50
2022-12-09T22:46:27.715Z,18.85
2022-12-09T22:51:28.581Z,25.95
2022-12-09T22:56:29.074Z,25.77
2022-12-09T23:01:30.336Z,23.45
2022-12-09T23:06:28.781Z,22.75
2022-12-09T23:11:27.892Z,29.00
2022-12-09T23:16:26.619Z,22.10
2022-12-09T23:21:25.863Z,41.67
2022-12-09T23:26:25.090Z,37.60
2022-12-09T23:31:26.242Z,83.45
2022-12-09T23:36:26.593Z,116.75
2022-12-09T23:41:24.900Z,164.18
2022-12-09T23:46:25.388Z,95.78
2022-12-09T23:51:24.810Z,69.57
2022-12-09T23:56:23.863Z,59.35
